Terminal Aerodrome Forecast
Issued by NWS

Home | Current Version | Previous Version | Text Only | Print | Product List | Glossary On
Versions: 1 2 3 4 5 6 7 8 9 10 11 12 13 14 15 16
000
FTUS45 KRIW 231700
TAFCPR
TAF
KCPR 231724Z 2318/2418 15008KT P6SM FEW080
     FM232000 23014G22KT P6SM FEW080 SCT150
     FM240100 22010KT P6SM VCSH SCT100 BKN150
     FM240800 23015G25KT P6SM VCSH FEW100 SCT150
     FM241500 23024G34KT P6SM FEW100 SCT150=

USA.gov is the U.S. government's official web portal to all federal, state and local government web resources and services.